<?xml version="1.0" encoding="UTF-8" standalone="no" ?>
<gpx version="1.1" creator="Visorando" xmlns:xsi="http://www.w3.org/2001/XMLSchema-instance" xmlns="http://www.topografix.com/GPX/1/1" xsi:schemaLocation="http://www.topografix.com/GPX/1/1 http://www.topografix.com/GPX/1/1/gpx.xsd">
 <metadata>
  <link href="https://www.visorando.com">
   <text>https://www.visorando.com</text>
  </link>
 </metadata>
 <trk>
  <trkseg>
   <trkpt lat="42.935871" lon="1.756031">
    <ele>769</ele>
    <time>2019-07-31T15:57:15+02:00</time>
   </trkpt>
   <trkpt lat="42.935871" lon="1.756031">
    <ele>769</ele>
    <time>2019-07-31T15:57:16+02:00</time>
   </trkpt>
   <trkpt lat="42.935956" lon="1.755982">
    <ele>771</ele>
    <time>2019-07-31T15:57:27+02:00</time>
   </trkpt>
   <trkpt lat="42.936002" lon="1.755977">
    <ele>771</ele>
    <time>2019-07-31T15:57:31+02:00</time>
   </trkpt>
   <trkpt lat="42.936029" lon="1.755912">
    <ele>772</ele>
    <time>2019-07-31T15:57:38+02:00</time>
   </trkpt>
   <trkpt lat="42.936066" lon="1.755869">
    <ele>773</ele>
    <time>2019-07-31T15:57:42+02:00</time>
   </trkpt>
   <trkpt lat="42.936098" lon="1.755771">
    <ele>774</ele>
    <time>2019-07-31T15:57:49+02:00</time>
   </trkpt>
   <trkpt lat="42.936132" lon="1.755707">
    <ele>775</ele>
    <time>2019-07-31T15:57:53+02:00</time>
   </trkpt>
   <trkpt lat="42.936171" lon="1.755668">
    <ele>777</ele>
    <time>2019-07-31T15:57:57+02:00</time>
   </trkpt>
   <trkpt lat="42.936228" lon="1.755483">
    <ele>779</ele>
    <time>2019-07-31T15:58:10+02:00</time>
   </trkpt>
   <trkpt lat="42.936235" lon="1.755391">
    <ele>779</ele>
    <time>2019-07-31T15:58:17+02:00</time>
   </trkpt>
   <trkpt lat="42.936361" lon="1.755193">
    <ele>780</ele>
    <time>2019-07-31T15:58:36+02:00</time>
   </trkpt>
   <trkpt lat="42.936369" lon="1.755131">
    <ele>780</ele>
    <time>2019-07-31T15:59:03+02:00</time>
   </trkpt>
   <trkpt lat="42.936402" lon="1.755088">
    <ele>781</ele>
    <time>2019-07-31T15:59:07+02:00</time>
   </trkpt>
   <trkpt lat="42.936544" lon="1.755003">
    <ele>783</ele>
    <time>2019-07-31T15:59:20+02:00</time>
   </trkpt>
   <trkpt lat="42.936584" lon="1.754966">
    <ele>784</ele>
    <time>2019-07-31T15:59:24+02:00</time>
   </trkpt>
   <trkpt lat="42.936915" lon="1.754814">
    <ele>792</ele>
    <time>2019-07-31T15:59:54+02:00</time>
   </trkpt>
   <trkpt lat="42.936952" lon="1.754777">
    <ele>793</ele>
    <time>2019-07-31T15:59:59+02:00</time>
   </trkpt>
   <trkpt lat="42.936981" lon="1.754728">
    <ele>794</ele>
    <time>2019-07-31T16:00:04+02:00</time>
   </trkpt>
   <trkpt lat="42.937158" lon="1.754574">
    <ele>799</ele>
    <time>2019-07-31T16:00:28+02:00</time>
   </trkpt>
   <trkpt lat="42.937204" lon="1.754551">
    <ele>801</ele>
    <time>2019-07-31T16:00:33+02:00</time>
   </trkpt>
   <trkpt lat="42.937313" lon="1.754417">
    <ele>807</ele>
    <time>2019-07-31T16:00:48+02:00</time>
   </trkpt>
   <trkpt lat="42.937402" lon="1.754186">
    <ele>811</ele>
    <time>2019-07-31T16:01:08+02:00</time>
   </trkpt>
   <trkpt lat="42.937438" lon="1.754032">
    <ele>811</ele>
    <time>2019-07-31T16:01:21+02:00</time>
   </trkpt>
   <trkpt lat="42.937492" lon="1.753907">
    <ele>813</ele>
    <time>2019-07-31T16:01:31+02:00</time>
   </trkpt>
   <trkpt lat="42.937652" lon="1.753730">
    <ele>826</ele>
    <time>2019-07-31T16:01:55+02:00</time>
   </trkpt>
   <trkpt lat="42.937713" lon="1.753617">
    <ele>831</ele>
    <time>2019-07-31T16:02:06+02:00</time>
   </trkpt>
   <trkpt lat="42.937939" lon="1.753317">
    <ele>851</ele>
    <time>2019-07-31T16:02:40+02:00</time>
   </trkpt>
   <trkpt lat="42.937996" lon="1.753270">
    <ele>857</ele>
    <time>2019-07-31T16:02:47+02:00</time>
   </trkpt>
   <trkpt lat="42.938028" lon="1.753221">
    <ele>858</ele>
    <time>2019-07-31T16:02:52+02:00</time>
   </trkpt>
   <trkpt lat="42.938112" lon="1.753150">
    <ele>863</ele>
    <time>2019-07-31T16:03:02+02:00</time>
   </trkpt>
   <trkpt lat="42.938260" lon="1.752930">
    <ele>864</ele>
    <time>2019-07-31T16:03:26+02:00</time>
   </trkpt>
   <trkpt lat="42.938311" lon="1.752809">
    <ele>863</ele>
    <time>2019-07-31T16:03:39+02:00</time>
   </trkpt>
   <trkpt lat="42.938275" lon="1.752761">
    <ele>855</ele>
    <time>2019-07-31T16:03:43+02:00</time>
   </trkpt>
   <trkpt lat="42.938341" lon="1.752694">
    <ele>856</ele>
    <time>2019-07-31T16:03:54+02:00</time>
   </trkpt>
   <trkpt lat="42.938442" lon="1.752594">
    <ele>854</ele>
    <time>2019-07-31T16:04:08+02:00</time>
   </trkpt>
   <trkpt lat="42.938519" lon="1.752417">
    <ele>847</ele>
    <time>2019-07-31T16:04:28+02:00</time>
   </trkpt>
   <trkpt lat="42.938614" lon="1.752363">
    <ele>850</ele>
    <time>2019-07-31T16:04:37+02:00</time>
   </trkpt>
   <trkpt lat="42.938627" lon="1.752307">
    <ele>844</ele>
    <time>2019-07-31T16:04:46+02:00</time>
   </trkpt>
   <trkpt lat="42.938676" lon="1.752222">
    <ele>837</ele>
    <time>2019-07-31T16:05:09+02:00</time>
   </trkpt>
   <trkpt lat="42.938879" lon="1.752104">
    <ele>830</ele>
    <time>2019-07-31T16:05:30+02:00</time>
   </trkpt>
   <trkpt lat="42.938925" lon="1.752094">
    <ele>829</ele>
    <time>2019-07-31T16:05:34+02:00</time>
   </trkpt>
   <trkpt lat="42.939042" lon="1.752112">
    <ele>828</ele>
    <time>2019-07-31T16:05:49+02:00</time>
   </trkpt>
   <trkpt lat="42.939243" lon="1.752239">
    <ele>832</ele>
    <time>2019-07-31T16:06:13+02:00</time>
   </trkpt>
   <trkpt lat="42.939300" lon="1.752245">
    <ele>834</ele>
    <time>2019-07-31T16:06:21+02:00</time>
   </trkpt>
   <trkpt lat="42.939284" lon="1.752327">
    <ele>836</ele>
    <time>2019-07-31T16:07:21+02:00</time>
   </trkpt>
   <trkpt lat="42.939327" lon="1.752365">
    <ele>838</ele>
    <time>2019-07-31T16:07:39+02:00</time>
   </trkpt>
   <trkpt lat="42.939348" lon="1.752443">
    <ele>841</ele>
    <time>2019-07-31T16:07:51+02:00</time>
   </trkpt>
   <trkpt lat="42.939411" lon="1.752451">
    <ele>843</ele>
    <time>2019-07-31T16:08:03+02:00</time>
   </trkpt>
   <trkpt lat="42.939442" lon="1.752493">
    <ele>845</ele>
    <time>2019-07-31T16:08:15+02:00</time>
   </trkpt>
   <trkpt lat="42.939406" lon="1.752571">
    <ele>847</ele>
    <time>2019-07-31T16:08:27+02:00</time>
   </trkpt>
   <trkpt lat="42.939406" lon="1.752641">
    <ele>849</ele>
    <time>2019-07-31T16:08:39+02:00</time>
   </trkpt>
   <trkpt lat="42.939396" lon="1.752716">
    <ele>852</ele>
    <time>2019-07-31T16:08:57+02:00</time>
   </trkpt>
   <trkpt lat="42.939412" lon="1.752826">
    <ele>856</ele>
    <time>2019-07-31T16:09:27+02:00</time>
   </trkpt>
   <trkpt lat="42.939380" lon="1.752914">
    <ele>858</ele>
    <time>2019-07-31T16:09:39+02:00</time>
   </trkpt>
   <trkpt lat="42.939376" lon="1.752987">
    <ele>860</ele>
    <time>2019-07-31T16:09:51+02:00</time>
   </trkpt>
   <trkpt lat="42.939351" lon="1.753062">
    <ele>861</ele>
    <time>2019-07-31T16:10:01+02:00</time>
   </trkpt>
   <trkpt lat="42.939335" lon="1.753123">
    <ele>863</ele>
    <time>2019-07-31T16:10:22+02:00</time>
   </trkpt>
   <trkpt lat="42.939328" lon="1.753208">
    <ele>865</ele>
    <time>2019-07-31T16:11:22+02:00</time>
   </trkpt>
   <trkpt lat="42.939323" lon="1.753297">
    <ele>867</ele>
    <time>2019-07-31T16:11:34+02:00</time>
   </trkpt>
   <trkpt lat="42.939336" lon="1.753388">
    <ele>870</ele>
    <time>2019-07-31T16:11:46+02:00</time>
   </trkpt>
   <trkpt lat="42.939314" lon="1.753598">
    <ele>874</ele>
    <time>2019-07-31T16:12:10+02:00</time>
   </trkpt>
   <trkpt lat="42.939317" lon="1.753675">
    <ele>877</ele>
    <time>2019-07-31T16:12:22+02:00</time>
   </trkpt>
   <trkpt lat="42.939304" lon="1.753750">
    <ele>878</ele>
    <time>2019-07-31T16:12:34+02:00</time>
   </trkpt>
   <trkpt lat="42.939199" lon="1.753870">
    <ele>878</ele>
    <time>2019-07-31T16:13:10+02:00</time>
   </trkpt>
   <trkpt lat="42.939145" lon="1.753957">
    <ele>880</ele>
    <time>2019-07-31T16:13:22+02:00</time>
   </trkpt>
   <trkpt lat="42.939107" lon="1.754042">
    <ele>882</ele>
    <time>2019-07-31T16:13:32+02:00</time>
   </trkpt>
   <trkpt lat="42.939100" lon="1.754103">
    <ele>885</ele>
    <time>2019-07-31T16:13:50+02:00</time>
   </trkpt>
   <trkpt lat="42.939030" lon="1.754133">
    <ele>884</ele>
    <time>2019-07-31T16:14:02+02:00</time>
   </trkpt>
   <trkpt lat="42.938996" lon="1.754194">
    <ele>885</ele>
    <time>2019-07-31T16:14:20+02:00</time>
   </trkpt>
   <trkpt lat="42.938932" lon="1.754194">
    <ele>883</ele>
    <time>2019-07-31T16:14:38+02:00</time>
   </trkpt>
   <trkpt lat="42.938860" lon="1.754264">
    <ele>885</ele>
    <time>2019-07-31T16:15:08+02:00</time>
   </trkpt>
   <trkpt lat="42.938817" lon="1.754308">
    <ele>888</ele>
    <time>2019-07-31T16:15:12+02:00</time>
   </trkpt>
   <trkpt lat="42.938766" lon="1.754333">
    <ele>889</ele>
    <time>2019-07-31T16:15:33+02:00</time>
   </trkpt>
   <trkpt lat="42.938689" lon="1.754375">
    <ele>891</ele>
    <time>2019-07-31T16:16:03+02:00</time>
   </trkpt>
   <trkpt lat="42.938599" lon="1.754395">
    <ele>892</ele>
    <time>2019-07-31T16:16:45+02:00</time>
   </trkpt>
   <trkpt lat="42.938528" lon="1.754330">
    <ele>891</ele>
    <time>2019-07-31T16:16:57+02:00</time>
   </trkpt>
   <trkpt lat="42.938538" lon="1.754212">
    <ele>890</ele>
    <time>2019-07-31T16:17:15+02:00</time>
   </trkpt>
   <trkpt lat="42.938481" lon="1.754177">
    <ele>890</ele>
    <time>2019-07-31T16:17:31+02:00</time>
   </trkpt>
   <trkpt lat="42.938476" lon="1.754057">
    <ele>888</ele>
    <time>2019-07-31T16:17:43+02:00</time>
   </trkpt>
   <trkpt lat="42.938460" lon="1.753987">
    <ele>888</ele>
    <time>2019-07-31T16:17:49+02:00</time>
   </trkpt>
   <trkpt lat="42.938456" lon="1.753912">
    <ele>887</ele>
    <time>2019-07-31T16:18:03+02:00</time>
   </trkpt>
   <trkpt lat="42.938449" lon="1.753850">
    <ele>887</ele>
    <time>2019-07-31T16:18:15+02:00</time>
   </trkpt>
   <trkpt lat="42.938443" lon="1.753765">
    <ele>886</ele>
    <time>2019-07-31T16:18:45+02:00</time>
   </trkpt>
   <trkpt lat="42.938448" lon="1.753707">
    <ele>885</ele>
    <time>2019-07-31T16:18:57+02:00</time>
   </trkpt>
   <trkpt lat="42.938433" lon="1.753632">
    <ele>885</ele>
    <time>2019-07-31T16:19:09+02:00</time>
   </trkpt>
   <trkpt lat="42.938465" lon="1.753561">
    <ele>884</ele>
    <time>2019-07-31T16:19:21+02:00</time>
   </trkpt>
   <trkpt lat="42.938404" lon="1.753255">
    <ele>882</ele>
    <time>2019-07-31T16:19:25+02:00</time>
   </trkpt>
   <trkpt lat="42.938459" lon="1.753381">
    <ele>882</ele>
    <time>2019-07-31T16:19:45+02:00</time>
   </trkpt>
   <trkpt lat="42.938532" lon="1.753638">
    <ele>884</ele>
    <time>2019-07-31T16:19:57+02:00</time>
   </trkpt>
   <trkpt lat="42.938596" lon="1.753494">
    <ele>882</ele>
    <time>2019-07-31T16:20:09+02:00</time>
   </trkpt>
   <trkpt lat="42.938615" lon="1.753405">
    <ele>881</ele>
    <time>2019-07-31T16:20:39+02:00</time>
   </trkpt>
   <trkpt lat="42.938620" lon="1.753260">
    <ele>879</ele>
    <time>2019-07-31T16:21:44+02:00</time>
   </trkpt>
   <trkpt lat="42.938663" lon="1.753437">
    <ele>878</ele>
    <time>2019-07-31T16:22:11+02:00</time>
   </trkpt>
   <trkpt lat="42.938728" lon="1.753448">
    <ele>874</ele>
    <time>2019-07-31T16:22:41+02:00</time>
   </trkpt>
   <trkpt lat="42.938703" lon="1.753528">
    <ele>877</ele>
    <time>2019-07-31T16:22:59+02:00</time>
   </trkpt>
   <trkpt lat="42.938699" lon="1.753587">
    <ele>878</ele>
    <time>2019-07-31T16:23:11+02:00</time>
   </trkpt>
   <trkpt lat="42.938683" lon="1.753687">
    <ele>880</ele>
    <time>2019-07-31T16:23:28+02:00</time>
   </trkpt>
   <trkpt lat="42.938642" lon="1.753696">
    <ele>882</ele>
    <time>2019-07-31T16:23:35+02:00</time>
   </trkpt>
   <trkpt lat="42.938585" lon="1.753738">
    <ele>885</ele>
    <time>2019-07-31T16:23:44+02:00</time>
   </trkpt>
   <trkpt lat="42.938541" lon="1.753733">
    <ele>885</ele>
    <time>2019-07-31T16:24:02+02:00</time>
   </trkpt>
   <trkpt lat="42.938493" lon="1.753703">
    <ele>885</ele>
    <time>2019-07-31T16:24:20+02:00</time>
   </trkpt>
   <trkpt lat="42.938479" lon="1.753635">
    <ele>884</ele>
    <time>2019-07-31T16:24:30+02:00</time>
   </trkpt>
   <trkpt lat="42.938442" lon="1.753679">
    <ele>885</ele>
    <time>2019-07-31T16:24:50+02:00</time>
   </trkpt>
   <trkpt lat="42.938426" lon="1.753915">
    <ele>888</ele>
    <time>2019-07-31T16:25:31+02:00</time>
   </trkpt>
   <trkpt lat="42.938441" lon="1.753974">
    <ele>888</ele>
    <time>2019-07-31T16:25:35+02:00</time>
   </trkpt>
   <trkpt lat="42.938461" lon="1.754043">
    <ele>888</ele>
    <time>2019-07-31T16:25:50+02:00</time>
   </trkpt>
   <trkpt lat="42.938483" lon="1.754138">
    <ele>889</ele>
    <time>2019-07-31T16:26:02+02:00</time>
   </trkpt>
   <trkpt lat="42.938525" lon="1.754212">
    <ele>890</ele>
    <time>2019-07-31T16:26:20+02:00</time>
   </trkpt>
   <trkpt lat="42.938514" lon="1.754299">
    <ele>891</ele>
    <time>2019-07-31T16:26:32+02:00</time>
   </trkpt>
   <trkpt lat="42.938549" lon="1.754359">
    <ele>892</ele>
    <time>2019-07-31T16:26:44+02:00</time>
   </trkpt>
   <trkpt lat="42.938623" lon="1.754408">
    <ele>892</ele>
    <time>2019-07-31T16:26:56+02:00</time>
   </trkpt>
   <trkpt lat="42.938673" lon="1.754356">
    <ele>891</ele>
    <time>2019-07-31T16:27:08+02:00</time>
   </trkpt>
   <trkpt lat="42.938735" lon="1.754351">
    <ele>890</ele>
    <time>2019-07-31T16:27:20+02:00</time>
   </trkpt>
   <trkpt lat="42.938794" lon="1.754368">
    <ele>890</ele>
    <time>2019-07-31T16:27:32+02:00</time>
   </trkpt>
   <trkpt lat="42.938838" lon="1.754394">
    <ele>890</ele>
    <time>2019-07-31T16:27:38+02:00</time>
   </trkpt>
   <trkpt lat="42.938887" lon="1.754453">
    <ele>892</ele>
    <time>2019-07-31T16:27:50+02:00</time>
   </trkpt>
   <trkpt lat="42.938955" lon="1.754482">
    <ele>896</ele>
    <time>2019-07-31T16:28:02+02:00</time>
   </trkpt>
   <trkpt lat="42.939007" lon="1.754545">
    <ele>900</ele>
    <time>2019-07-31T16:28:14+02:00</time>
   </trkpt>
   <trkpt lat="42.939062" lon="1.754551">
    <ele>901</ele>
    <time>2019-07-31T16:28:26+02:00</time>
   </trkpt>
   <trkpt lat="42.939109" lon="1.754572">
    <ele>903</ele>
    <time>2019-07-31T16:28:38+02:00</time>
   </trkpt>
   <trkpt lat="42.939186" lon="1.754584">
    <ele>906</ele>
    <time>2019-07-31T16:28:50+02:00</time>
   </trkpt>
   <trkpt lat="42.939257" lon="1.754539">
    <ele>906</ele>
    <time>2019-07-31T16:29:02+02:00</time>
   </trkpt>
   <trkpt lat="42.939329" lon="1.754546">
    <ele>909</ele>
    <time>2019-07-31T16:29:14+02:00</time>
   </trkpt>
   <trkpt lat="42.939412" lon="1.754513">
    <ele>910</ele>
    <time>2019-07-31T16:29:27+02:00</time>
   </trkpt>
   <trkpt lat="42.939487" lon="1.754498">
    <ele>912</ele>
    <time>2019-07-31T16:29:39+02:00</time>
   </trkpt>
   <trkpt lat="42.939533" lon="1.754521">
    <ele>915</ele>
    <time>2019-07-31T16:29:57+02:00</time>
   </trkpt>
   <trkpt lat="42.939581" lon="1.754506">
    <ele>916</ele>
    <time>2019-07-31T16:30:09+02:00</time>
   </trkpt>
   <trkpt lat="42.939626" lon="1.754470">
    <ele>917</ele>
    <time>2019-07-31T16:30:51+02:00</time>
   </trkpt>
   <trkpt lat="42.939673" lon="1.754427">
    <ele>918</ele>
    <time>2019-07-31T16:31:03+02:00</time>
   </trkpt>
   <trkpt lat="42.939736" lon="1.754408">
    <ele>919</ele>
    <time>2019-07-31T16:31:14+02:00</time>
   </trkpt>
   <trkpt lat="42.939826" lon="1.754389">
    <ele>920</ele>
    <time>2019-07-31T16:31:34+02:00</time>
   </trkpt>
   <trkpt lat="42.939873" lon="1.754419">
    <ele>922</ele>
    <time>2019-07-31T16:32:06+02:00</time>
   </trkpt>
   <trkpt lat="42.939885" lon="1.754521">
    <ele>923</ele>
    <time>2019-07-31T16:32:20+02:00</time>
   </trkpt>
   <trkpt lat="42.940071" lon="1.754624">
    <ele>926</ele>
    <time>2019-07-31T16:32:55+02:00</time>
   </trkpt>
   <trkpt lat="42.940115" lon="1.754625">
    <ele>926</ele>
    <time>2019-07-31T16:33:13+02:00</time>
   </trkpt>
   <trkpt lat="42.940142" lon="1.754541">
    <ele>925</ele>
    <time>2019-07-31T16:33:36+02:00</time>
   </trkpt>
   <trkpt lat="42.940181" lon="1.754397">
    <ele>924</ele>
    <time>2019-07-31T16:33:53+02:00</time>
   </trkpt>
   <trkpt lat="42.940254" lon="1.754301">
    <ele>924</ele>
    <time>2019-07-31T16:34:03+02:00</time>
   </trkpt>
   <trkpt lat="42.940313" lon="1.754253">
    <ele>924</ele>
    <time>2019-07-31T16:34:12+02:00</time>
   </trkpt>
   <trkpt lat="42.940326" lon="1.754192">
    <ele>923</ele>
    <time>2019-07-31T16:34:17+02:00</time>
   </trkpt>
   <trkpt lat="42.940424" lon="1.754075">
    <ele>923</ele>
    <time>2019-07-31T16:34:30+02:00</time>
   </trkpt>
   <trkpt lat="42.940490" lon="1.753956">
    <ele>923</ele>
    <time>2019-07-31T16:34:40+02:00</time>
   </trkpt>
   <trkpt lat="42.940558" lon="1.753849">
    <ele>923</ele>
    <time>2019-07-31T16:34:50+02:00</time>
   </trkpt>
   <trkpt lat="42.940622" lon="1.753735">
    <ele>922</ele>
    <time>2019-07-31T16:35:00+02:00</time>
   </trkpt>
   <trkpt lat="42.940656" lon="1.753683">
    <ele>921</ele>
    <time>2019-07-31T16:35:05+02:00</time>
   </trkpt>
   <trkpt lat="42.940723" lon="1.753583">
    <ele>921</ele>
    <time>2019-07-31T16:35:14+02:00</time>
   </trkpt>
   <trkpt lat="42.940863" lon="1.753437">
    <ele>920</ele>
    <time>2019-07-31T16:35:34+02:00</time>
   </trkpt>
   <trkpt lat="42.940925" lon="1.753354">
    <ele>920</ele>
    <time>2019-07-31T16:35:50+02:00</time>
   </trkpt>
   <trkpt lat="42.940972" lon="1.753290">
    <ele>920</ele>
    <time>2019-07-31T16:35:59+02:00</time>
   </trkpt>
   <trkpt lat="42.941006" lon="1.753220">
    <ele>920</ele>
    <time>2019-07-31T16:36:11+02:00</time>
   </trkpt>
   <trkpt lat="42.941036" lon="1.753152">
    <ele>920</ele>
    <time>2019-07-31T16:36:21+02:00</time>
   </trkpt>
   <trkpt lat="42.941051" lon="1.753062">
    <ele>920</ele>
    <time>2019-07-31T16:36:29+02:00</time>
   </trkpt>
   <trkpt lat="42.941036" lon="1.752992">
    <ele>920</ele>
    <time>2019-07-31T16:36:35+02:00</time>
   </trkpt>
   <trkpt lat="42.941045" lon="1.752924">
    <ele>920</ele>
    <time>2019-07-31T16:36:41+02:00</time>
   </trkpt>
   <trkpt lat="42.941090" lon="1.752823">
    <ele>920</ele>
    <time>2019-07-31T16:36:53+02:00</time>
   </trkpt>
   <trkpt lat="42.941144" lon="1.752737">
    <ele>919</ele>
    <time>2019-07-31T16:37:05+02:00</time>
   </trkpt>
   <trkpt lat="42.941169" lon="1.752659">
    <ele>918</ele>
    <time>2019-07-31T16:37:14+02:00</time>
   </trkpt>
   <trkpt lat="42.941241" lon="1.752530">
    <ele>917</ele>
    <time>2019-07-31T16:37:32+02:00</time>
   </trkpt>
   <trkpt lat="42.941274" lon="1.752484">
    <ele>916</ele>
    <time>2019-07-31T16:37:37+02:00</time>
   </trkpt>
   <trkpt lat="42.941340" lon="1.752411">
    <ele>915</ele>
    <time>2019-07-31T16:37:48+02:00</time>
   </trkpt>
   <trkpt lat="42.941381" lon="1.752321">
    <ele>914</ele>
    <time>2019-07-31T16:37:59+02:00</time>
   </trkpt>
   <trkpt lat="42.941438" lon="1.752249">
    <ele>912</ele>
    <time>2019-07-31T16:38:09+02:00</time>
   </trkpt>
   <trkpt lat="42.941466" lon="1.752151">
    <ele>910</ele>
    <time>2019-07-31T16:38:19+02:00</time>
   </trkpt>
   <trkpt lat="42.941505" lon="1.752088">
    <ele>908</ele>
    <time>2019-07-31T16:38:26+02:00</time>
   </trkpt>
   <trkpt lat="42.941547" lon="1.752056">
    <ele>907</ele>
    <time>2019-07-31T16:38:34+02:00</time>
   </trkpt>
   <trkpt lat="42.941537" lon="1.751967">
    <ele>906</ele>
    <time>2019-07-31T16:38:46+02:00</time>
   </trkpt>
   <trkpt lat="42.941522" lon="1.751906">
    <ele>906</ele>
    <time>2019-07-31T16:38:58+02:00</time>
   </trkpt>
   <trkpt lat="42.941494" lon="1.751850">
    <ele>906</ele>
    <time>2019-07-31T16:39:10+02:00</time>
   </trkpt>
   <trkpt lat="42.941493" lon="1.751784">
    <ele>904</ele>
    <time>2019-07-31T16:39:21+02:00</time>
   </trkpt>
   <trkpt lat="42.941504" lon="1.751712">
    <ele>902</ele>
    <time>2019-07-31T16:39:39+02:00</time>
   </trkpt>
   <trkpt lat="42.941549" lon="1.751662">
    <ele>901</ele>
    <time>2019-07-31T16:39:57+02:00</time>
   </trkpt>
   <trkpt lat="42.941642" lon="1.751641">
    <ele>899</ele>
    <time>2019-07-31T16:40:09+02:00</time>
   </trkpt>
   <trkpt lat="42.941695" lon="1.751627">
    <ele>898</ele>
    <time>2019-07-31T16:40:17+02:00</time>
   </trkpt>
   <trkpt lat="42.941791" lon="1.751580">
    <ele>895</ele>
    <time>2019-07-31T16:40:27+02:00</time>
   </trkpt>
   <trkpt lat="42.941914" lon="1.751449">
    <ele>892</ele>
    <time>2019-07-31T16:40:45+02:00</time>
   </trkpt>
   <trkpt lat="42.942025" lon="1.751313">
    <ele>889</ele>
    <time>2019-07-31T16:41:02+02:00</time>
   </trkpt>
   <trkpt lat="42.942086" lon="1.751249">
    <ele>888</ele>
    <time>2019-07-31T16:41:11+02:00</time>
   </trkpt>
   <trkpt lat="42.942207" lon="1.751042">
    <ele>885</ele>
    <time>2019-07-31T16:41:37+02:00</time>
   </trkpt>
   <trkpt lat="42.942220" lon="1.750899">
    <ele>884</ele>
    <time>2019-07-31T16:41:48+02:00</time>
   </trkpt>
   <trkpt lat="42.942302" lon="1.750709">
    <ele>881</ele>
    <time>2019-07-31T16:42:01+02:00</time>
   </trkpt>
   <trkpt lat="42.942381" lon="1.750530">
    <ele>880</ele>
    <time>2019-07-31T16:42:15+02:00</time>
   </trkpt>
   <trkpt lat="42.942475" lon="1.750353">
    <ele>880</ele>
    <time>2019-07-31T16:42:30+02:00</time>
   </trkpt>
   <trkpt lat="42.942626" lon="1.750031">
    <ele>879</ele>
    <time>2019-07-31T16:42:48+02:00</time>
   </trkpt>
   <trkpt lat="42.942581" lon="1.749983">
    <ele>879</ele>
    <time>2019-07-31T16:43:09+02:00</time>
   </trkpt>
   <trkpt lat="42.942437" lon="1.750143">
    <ele>879</ele>
    <time>2019-07-31T16:43:15+02:00</time>
   </trkpt>
   <trkpt lat="42.942219" lon="1.750353">
    <ele>879</ele>
    <time>2019-07-31T16:43:41+02:00</time>
   </trkpt>
   <trkpt lat="42.942062" lon="1.750531">
    <ele>875</ele>
    <time>2019-07-31T16:44:01+02:00</time>
   </trkpt>
   <trkpt lat="42.941972" lon="1.750617">
    <ele>875</ele>
    <time>2019-07-31T16:44:09+02:00</time>
   </trkpt>
   <trkpt lat="42.941921" lon="1.750671">
    <ele>874</ele>
    <time>2019-07-31T16:44:14+02:00</time>
   </trkpt>
   <trkpt lat="42.941846" lon="1.750735">
    <ele>873</ele>
    <time>2019-07-31T16:44:22+02:00</time>
   </trkpt>
   <trkpt lat="42.941783" lon="1.750783">
    <ele>873</ele>
    <time>2019-07-31T16:44:26+02:00</time>
   </trkpt>
   <trkpt lat="42.941693" lon="1.750842">
    <ele>871</ele>
    <time>2019-07-31T16:44:31+02:00</time>
   </trkpt>
   <trkpt lat="42.941567" lon="1.750880">
    <ele>869</ele>
    <time>2019-07-31T16:44:48+02:00</time>
   </trkpt>
   <trkpt lat="42.941485" lon="1.750907">
    <ele>867</ele>
    <time>2019-07-31T16:44:53+02:00</time>
   </trkpt>
   <trkpt lat="42.941359" lon="1.750971">
    <ele>866</ele>
    <time>2019-07-31T16:44:58+02:00</time>
   </trkpt>
   <trkpt lat="42.941067" lon="1.751012">
    <ele>860</ele>
    <time>2019-07-31T16:45:31+02:00</time>
   </trkpt>
   <trkpt lat="42.940850" lon="1.751094">
    <ele>859</ele>
    <time>2019-07-31T16:45:52+02:00</time>
   </trkpt>
   <trkpt lat="42.940808" lon="1.751132">
    <ele>859</ele>
    <time>2019-07-31T16:45:56+02:00</time>
   </trkpt>
   <trkpt lat="42.940775" lon="1.751175">
    <ele>858</ele>
    <time>2019-07-31T16:45:59+02:00</time>
   </trkpt>
   <trkpt lat="42.940682" lon="1.751233">
    <ele>856</ele>
    <time>2019-07-31T16:46:08+02:00</time>
   </trkpt>
   <trkpt lat="42.940553" lon="1.751357">
    <ele>856</ele>
    <time>2019-07-31T16:46:23+02:00</time>
   </trkpt>
   <trkpt lat="42.940321" lon="1.751606">
    <ele>853</ele>
    <time>2019-07-31T16:46:48+02:00</time>
   </trkpt>
   <trkpt lat="42.940288" lon="1.751664">
    <ele>853</ele>
    <time>2019-07-31T16:46:53+02:00</time>
   </trkpt>
   <trkpt lat="42.940189" lon="1.751699">
    <ele>851</ele>
    <time>2019-07-31T16:47:02+02:00</time>
   </trkpt>
   <trkpt lat="42.940155" lon="1.751736">
    <ele>851</ele>
    <time>2019-07-31T16:47:06+02:00</time>
   </trkpt>
   <trkpt lat="42.940105" lon="1.751763">
    <ele>849</ele>
    <time>2019-07-31T16:47:11+02:00</time>
   </trkpt>
   <trkpt lat="42.939922" lon="1.751894">
    <ele>846</ele>
    <time>2019-07-31T16:47:28+02:00</time>
   </trkpt>
   <trkpt lat="42.939796" lon="1.752001">
    <ele>845</ele>
    <time>2019-07-31T16:47:39+02:00</time>
   </trkpt>
   <trkpt lat="42.939706" lon="1.752087">
    <ele>844</ele>
    <time>2019-07-31T16:47:47+02:00</time>
   </trkpt>
   <trkpt lat="42.939659" lon="1.752189">
    <ele>845</ele>
    <time>2019-07-31T16:47:51+02:00</time>
   </trkpt>
   <trkpt lat="42.939530" lon="1.752230">
    <ele>840</ele>
    <time>2019-07-31T16:48:04+02:00</time>
   </trkpt>
   <trkpt lat="42.939361" lon="1.752233">
    <ele>835</ele>
    <time>2019-07-31T16:48:27+02:00</time>
   </trkpt>
   <trkpt lat="42.939046" lon="1.752094">
    <ele>827</ele>
    <time>2019-07-31T16:48:54+02:00</time>
   </trkpt>
   <trkpt lat="42.938949" lon="1.752093">
    <ele>829</ele>
    <time>2019-07-31T16:49:03+02:00</time>
   </trkpt>
   <trkpt lat="42.938734" lon="1.752224">
    <ele>837</ele>
    <time>2019-07-31T16:49:27+02:00</time>
   </trkpt>
   <trkpt lat="42.938440" lon="1.752507">
    <ele>847</ele>
    <time>2019-07-31T16:50:00+02:00</time>
   </trkpt>
   <trkpt lat="42.938304" lon="1.752662">
    <ele>849</ele>
    <time>2019-07-31T16:50:20+02:00</time>
   </trkpt>
   <trkpt lat="42.938274" lon="1.752724">
    <ele>851</ele>
    <time>2019-07-31T16:50:25+02:00</time>
   </trkpt>
   <trkpt lat="42.938257" lon="1.752786">
    <ele>855</ele>
    <time>2019-07-31T16:50:30+02:00</time>
   </trkpt>
   <trkpt lat="42.938038" lon="1.753131">
    <ele>854</ele>
    <time>2019-07-31T16:51:03+02:00</time>
   </trkpt>
   <trkpt lat="42.938003" lon="1.753176">
    <ele>852</ele>
    <time>2019-07-31T16:51:07+02:00</time>
   </trkpt>
   <trkpt lat="42.937978" lon="1.753228">
    <ele>851</ele>
    <time>2019-07-31T16:51:11+02:00</time>
   </trkpt>
   <trkpt lat="42.937878" lon="1.753373">
    <ele>844</ele>
    <time>2019-07-31T16:51:23+02:00</time>
   </trkpt>
   <trkpt lat="42.937811" lon="1.753528">
    <ele>840</ele>
    <time>2019-07-31T16:51:36+02:00</time>
   </trkpt>
   <trkpt lat="42.937716" lon="1.753664">
    <ele>832</ele>
    <time>2019-07-31T16:51:49+02:00</time>
   </trkpt>
   <trkpt lat="42.937695" lon="1.753722">
    <ele>831</ele>
    <time>2019-07-31T16:51:53+02:00</time>
   </trkpt>
   <trkpt lat="42.937459" lon="1.754054">
    <ele>813</ele>
    <time>2019-07-31T16:52:18+02:00</time>
   </trkpt>
   <trkpt lat="42.937302" lon="1.754336">
    <ele>805</ele>
    <time>2019-07-31T16:52:38+02:00</time>
   </trkpt>
   <trkpt lat="42.937076" lon="1.754608">
    <ele>796</ele>
    <time>2019-07-31T16:53:06+02:00</time>
   </trkpt>
   <trkpt lat="42.937049" lon="1.754667">
    <ele>796</ele>
    <time>2019-07-31T16:53:11+02:00</time>
   </trkpt>
   <trkpt lat="42.936711" lon="1.754845">
    <ele>785</ele>
    <time>2019-07-31T16:53:43+02:00</time>
   </trkpt>
   <trkpt lat="42.936481" lon="1.755028">
    <ele>782</ele>
    <time>2019-07-31T16:54:03+02:00</time>
   </trkpt>
   <trkpt lat="42.936448" lon="1.755078">
    <ele>782</ele>
    <time>2019-07-31T16:54:07+02:00</time>
   </trkpt>
   <trkpt lat="42.936428" lon="1.755141">
    <ele>781</ele>
    <time>2019-07-31T16:54:12+02:00</time>
   </trkpt>
   <trkpt lat="42.936316" lon="1.755298">
    <ele>780</ele>
    <time>2019-07-31T16:54:25+02:00</time>
   </trkpt>
   <trkpt lat="42.936314" lon="1.755370">
    <ele>780</ele>
    <time>2019-07-31T16:54:30+02:00</time>
   </trkpt>
   <trkpt lat="42.936259" lon="1.755489">
    <ele>779</ele>
    <time>2019-07-31T16:54:37+02:00</time>
   </trkpt>
   <trkpt lat="42.936218" lon="1.755529">
    <ele>778</ele>
    <time>2019-07-31T16:54:41+02:00</time>
   </trkpt>
   <trkpt lat="42.936173" lon="1.755561">
    <ele>777</ele>
    <time>2019-07-31T16:54:45+02:00</time>
   </trkpt>
   <trkpt lat="42.936108" lon="1.755766">
    <ele>774</ele>
    <time>2019-07-31T16:54:56+02:00</time>
   </trkpt>
   <trkpt lat="42.936051" lon="1.755870">
    <ele>773</ele>
    <time>2019-07-31T16:55:04+02:00</time>
   </trkpt>
   <trkpt lat="42.935983" lon="1.755976">
    <ele>771</ele>
    <time>2019-07-31T16:55:13+02:00</time>
   </trkpt>
   <trkpt lat="42.935951" lon="1.756017">
    <ele>771</ele>
    <time>2019-07-31T16:55:18+02:00</time>
   </trkpt>
   <trkpt lat="42.935903" lon="1.756158">
    <ele>770</ele>
    <time>2019-07-31T16:55:25+02:00</time>
   </trkpt>
  </trkseg>
 </trk></gpx>